sensor_id;sensor_type;location;lat;lon;timestamp;P1;durP1;ratioP1;P2;durP2;ratioP2
26864;SDS011;40618;51.166;10.322;2023-04-25T00:01:14;4.40;;;1.85;;
26864;SDS011;40618;51.166;10.322;2023-04-25T00:03:40;2.72;;;1.50;;
26864;SDS011;40618;51.166;10.322;2023-04-25T00:06:06;7.05;;;2.65;;
26864;SDS011;40618;51.166;10.322;2023-04-25T00:08:32;12.75;;;6.45;;
26864;SDS011;40618;51.166;10.322;2023-04-25T00:10:58;6.00;;;3.45;;
26864;SDS011;40618;51.166;10.322;2023-04-25T00:13:25;5.63;;;2.25;;
26864;SDS011;40618;51.166;10.322;2023-04-25T00:15:51;2.33;;;1.58;;
26864;SDS011;40618;51.166;10.322;2023-04-25T00:18:18;1.85;;;1.55;;
26864;SDS011;40618;51.166;10.322;2023-04-25T00:20:47;3.20;;;1.88;;
26864;SDS011;40618;51.166;10.322;2023-04-25T00:23:13;4.63;;;1.48;;
26864;SDS011;40618;51.166;10.322;2023-04-25T00:25:43;2.77;;;1.70;;
26864;SDS011;40618;51.166;10.322;2023-04-25T00:28:10;4.07;;;2.03;;
26864;SDS011;40618;51.166;10.322;2023-04-25T00:30:37;2.88;;;1.80;;
26864;SDS011;40618;51.166;10.322;2023-04-25T00:33:03;3.92;;;2.38;;
26864;SDS011;40618;51.166;10.322;2023-04-25T00:35:29;4.47;;;3.03;;
26864;SDS011;40618;51.166;10.322;2023-04-25T00:37:54;6.75;;;2.63;;
26864;SDS011;40618;51.166;10.322;2023-04-25T00:40:20;5.63;;;2.60;;
26864;SDS011;40618;51.166;10.322;2023-04-25T00:42:46;4.88;;;2.50;;
26864;SDS011;40618;51.166;10.322;2023-04-25T00:45:13;3.47;;;2.10;;
26864;SDS011;40618;51.166;10.322;2023-04-25T00:47:40;3.08;;;1.85;;
26864;SDS011;40618;51.166;10.322;2023-04-25T00:50:07;3.30;;;1.77;;
26864;SDS011;40618;51.166;10.322;2023-04-25T00:52:34;6.43;;;2.40;;
26864;SDS011;40618;51.166;10.322;2023-04-25T00:55:01;4.68;;;2.38;;
26864;SDS011;40618;51.166;10.322;2023-04-25T00:57:27;3.70;;;1.90;;
26864;SDS011;40618;51.166;10.322;2023-04-25T00:59:53;1.63;;;1.42;;
26864;SDS011;40618;51.166;10.322;2023-04-25T01:02:19;3.33;;;1.80;;
26864;SDS011;40618;51.166;10.322;2023-04-25T01:04:47;4.57;;;1.70;;
26864;SDS011;40618;51.166;10.322;2023-04-25T01:07:13;4.78;;;2.45;;
26864;SDS011;40618;51.166;10.322;2023-04-25T01:09:40;2.92;;;1.70;;
26864;SDS011;40618;51.166;10.322;2023-04-25T01:12:06;4.63;;;2.50;;
26864;SDS011;40618;51.166;10.322;2023-04-25T01:14:32;5.75;;;2.67;;
26864;SDS011;40618;51.166;10.322;2023-04-25T01:16:58;6.75;;;3.30;;
26864;SDS011;40618;51.166;10.322;2023-04-25T01:19:24;4.70;;;2.65;;
26864;SDS011;40618;51.166;10.322;2023-04-25T01:21:50;7.38;;;3.22;;
26864;SDS011;40618;51.166;10.322;2023-04-25T01:24:16;2.72;;;1.63;;
26864;SDS011;40618;51.166;10.322;2023-04-25T01:26:43;4.10;;;1.70;;
26864;SDS011;40618;51.166;10.322;2023-04-25T01:29:18;5.45;;;1.80;;
26864;SDS011;40618;51.166;10.322;2023-04-25T01:31:45;3.40;;;1.92;;
26864;SDS011;40618;51.166;10.322;2023-04-25T01:34:12;4.95;;;2.97;;
26864;SDS011;40618;51.166;10.322;2023-04-25T01:36:38;6.95;;;2.90;;
26864;SDS011;40618;51.166;10.322;2023-04-25T01:39:05;4.75;;;2.72;;
26864;SDS011;40618;51.166;10.322;2023-04-25T01:41:31;3.97;;;2.30;;
26864;SDS011;40618;51.166;10.322;2023-04-25T01:43:56;4.07;;;2.28;;
26864;SDS011;40618;51.166;10.322;2023-04-25T01:46:22;3.35;;;1.92;;
26864;SDS011;40618;51.166;10.322;2023-04-25T01:48:48;4.53;;;2.40;;
26864;SDS011;40618;51.166;10.322;2023-04-25T01:51:13;3.17;;;1.70;;
26864;SDS011;40618;51.166;10.322;2023-04-25T01:53:40;3.90;;;2.28;;
26864;SDS011;40618;51.166;10.322;2023-04-25T01:56:07;5.10;;;2.10;;
26864;SDS011;40618;51.166;10.322;2023-04-25T01:58:33;6.10;;;2.17;;
26864;SDS011;40618;51.166;10.322;2023-04-25T02:00:58;3.65;;;1.88;;
26864;SDS011;40618;51.166;10.322;2023-04-25T02:03:24;5.00;;;1.70;;
26864;SDS011;40618;51.166;10.322;2023-04-25T02:05:50;3.63;;;1.70;;
26864;SDS011;40618;51.166;10.322;2023-04-25T02:08:16;2.47;;;1.58;;
26864;SDS011;40618;51.166;10.322;2023-04-25T02:10:43;3.30;;;1.50;;
26864;SDS011;40618;51.166;10.322;2023-04-25T02:13:08;3.88;;;1.70;;
26864;SDS011;40618;51.166;10.322;2023-04-25T02:15:34;3.35;;;1.50;;
26864;SDS011;40618;51.166;10.322;2023-04-25T02:18:00;3.72;;;2.38;;
26864;SDS011;40618;51.166;10.322;2023-04-25T02:20:27;3.42;;;1.90;;
26864;SDS011;40618;51.166;10.322;2023-04-25T02:22:55;3.92;;;2.03;;
26864;SDS011;40618;51.166;10.322;2023-04-25T02:25:20;4.32;;;2.03;;
26864;SDS011;40618;51.166;10.322;2023-04-25T02:27:48;2.28;;;1.67;;
26864;SDS011;40618;51.166;10.322;2023-04-25T02:30:14;4.22;;;2.03;;
26864;SDS011;40618;51.166;10.322;2023-04-25T02:32:40;3.40;;;1.60;;
26864;SDS011;40618;51.166;10.322;2023-04-25T02:35:06;4.55;;;1.75;;
26864;SDS011;40618;51.166;10.322;2023-04-25T02:37:33;5.47;;;1.98;;
26864;SDS011;40618;51.166;10.322;2023-04-25T02:40:01;4.05;;;2.15;;
26864;SDS011;40618;51.166;10.322;2023-04-25T02:42:28;3.53;;;2.17;;
26864;SDS011;40618;51.166;10.322;2023-04-25T02:44:53;4.03;;;2.40;;
26864;SDS011;40618;51.166;10.322;2023-04-25T02:47:19;2.78;;;1.88;;
26864;SDS011;40618;51.166;10.322;2023-04-25T02:49:45;2.85;;;2.15;;
26864;SDS011;40618;51.166;10.322;2023-04-25T02:52:11;4.47;;;2.30;;
26864;SDS011;40618;51.166;10.322;2023-04-25T02:54:37;6.20;;;2.20;;
26864;SDS011;40618;51.166;10.322;2023-04-25T02:57:04;4.18;;;2.25;;
26864;SDS011;40618;51.166;10.322;2023-04-25T02:59:30;3.92;;;2.38;;
26864;SDS011;40618;51.166;10.322;2023-04-25T03:01:56;4.35;;;2.35;;
26864;SDS011;40618;51.166;10.322;2023-04-25T03:04:21;3.90;;;2.50;;
26864;SDS011;40618;51.166;10.322;2023-04-25T03:06:48;3.08;;;2.03;;
26864;SDS011;40618;51.166;10.322;2023-04-25T03:09:15;4.97;;;2.58;;
26864;SDS011;40618;51.166;10.322;2023-04-25T03:11:41;5.57;;;2.33;;
26864;SDS011;40618;51.166;10.322;2023-04-25T03:14:07;4.13;;;2.42;;
26864;SDS011;40618;51.166;10.322;2023-04-25T03:16:33;8.57;;;2.35;;
26864;SDS011;40618;51.166;10.322;2023-04-25T03:18:59;3.75;;;2.47;;
26864;SDS011;40618;51.166;10.322;2023-04-25T03:21:24;6.00;;;2.58;;
26864;SDS011;40618;51.166;10.322;2023-04-25T03:23:51;6.18;;;3.83;;
26864;SDS011;40618;51.166;10.322;2023-04-25T03:26:17;6.53;;;2.90;;
26864;SDS011;40618;51.166;10.322;2023-04-25T03:28:42;6.22;;;2.50;;
26864;SDS011;40618;51.166;10.322;2023-04-25T03:31:08;4.68;;;2.60;;
26864;SDS011;40618;51.166;10.322;2023-04-25T03:33:34;4.60;;;2.50;;
26864;SDS011;40618;51.166;10.322;2023-04-25T03:35:59;8.27;;;4.60;;
26864;SDS011;40618;51.166;10.322;2023-04-25T03:38:25;4.70;;;2.70;;
26864;SDS011;40618;51.166;10.322;2023-04-25T03:40:51;8.60;;;3.70;;
26864;SDS011;40618;51.166;10.322;2023-04-25T03:43:17;5.38;;;3.70;;
26864;SDS011;40618;51.166;10.322;2023-04-25T03:45:42;7.80;;;3.72;;
26864;SDS011;40618;51.166;10.322;2023-04-25T03:48:08;6.50;;;3.50;;
26864;SDS011;40618;51.166;10.322;2023-04-25T03:50:34;5.82;;;2.80;;
26864;SDS011;40618;51.166;10.322;2023-04-25T03:52:59;3.85;;;2.50;;
26864;SDS011;40618;51.166;10.322;2023-04-25T03:55:25;7.22;;;4.32;;
26864;SDS011;40618;51.166;10.322;2023-04-25T03:57:51;6.13;;;3.42;;
26864;SDS011;40618;51.166;10.322;2023-04-25T04:00:16;6.68;;;3.53;;
26864;SDS011;40618;51.166;10.322;2023-04-25T04:02:42;7.03;;;3.03;;
26864;SDS011;40618;51.166;10.322;2023-04-25T04:05:08;6.22;;;3.15;;
26864;SDS011;40618;51.166;10.322;2023-04-25T04:07:34;10.13;;;3.63;;
26864;SDS011;40618;51.166;10.322;2023-04-25T04:10:04;6.32;;;3.33;;
26864;SDS011;40618;51.166;10.322;2023-04-25T04:12:36;6.47;;;3.10;;
26864;SDS011;40618;51.166;10.322;2023-04-25T04:15:02;8.10;;;3.67;;
26864;SDS011;40618;51.166;10.322;2023-04-25T04:17:30;4.65;;;2.85;;
26864;SDS011;40618;51.166;10.322;2023-04-25T04:19:56;4.82;;;3.10;;
26864;SDS011;40618;51.166;10.322;2023-04-25T04:22:22;6.15;;;3.00;;
26864;SDS011;40618;51.166;10.322;2023-04-25T04:24:48;6.63;;;2.92;;
26864;SDS011;40618;51.166;10.322;2023-04-25T04:27:15;4.55;;;2.90;;
26864;SDS011;40618;51.166;10.322;2023-04-25T04:29:47;6.13;;;2.53;;
26864;SDS011;40618;51.166;10.322;2023-04-25T04:32:13;5.43;;;2.38;;
26864;SDS011;40618;51.166;10.322;2023-04-25T04:34:40;7.47;;;2.70;;
26864;SDS011;40618;51.166;10.322;2023-04-25T04:37:06;9.23;;;3.38;;
26864;SDS011;40618;51.166;10.322;2023-04-25T04:39:35;6.75;;;2.67;;
26864;SDS011;40618;51.166;10.322;2023-04-25T04:42:01;9.00;;;3.47;;
26864;SDS011;40618;51.166;10.322;2023-04-25T04:44:28;6.03;;;3.00;;
26864;SDS011;40618;51.166;10.322;2023-04-25T04:46:57;6.40;;;2.95;;
26864;SDS011;40618;51.166;10.322;2023-04-25T04:49:23;5.25;;;2.60;;
26864;SDS011;40618;51.166;10.322;2023-04-25T04:51:49;6.30;;;2.97;;
26864;SDS011;40618;51.166;10.322;2023-04-25T04:54:15;6.95;;;2.70;;
26864;SDS011;40618;51.166;10.322;2023-04-25T04:56:41;8.52;;;2.72;;
26864;SDS011;40618;51.166;10.322;2023-04-25T04:59:06;8.23;;;3.08;;
26864;SDS011;40618;51.166;10.322;2023-04-25T05:01:32;4.22;;;2.42;;
26864;SDS011;40618;51.166;10.322;2023-04-25T05:04:00;6.68;;;2.70;;
26864;SDS011;40618;51.166;10.322;2023-04-25T05:06:27;5.38;;;2.50;;
26864;SDS011;40618;51.166;10.322;2023-04-25T05:08:56;5.50;;;2.72;;
26864;SDS011;40618;51.166;10.322;2023-04-25T05:11:23;5.60;;;2.30;;
26864;SDS011;40618;51.166;10.322;2023-04-25T05:13:51;5.88;;;2.97;;
26864;SDS011;40618;51.166;10.322;2023-04-25T05:16:17;3.17;;;2.42;;
26864;SDS011;40618;51.166;10.322;2023-04-25T05:18:43;4.00;;;2.50;;
26864;SDS011;40618;51.166;10.322;2023-04-25T05:21:09;4.65;;;2.78;;
26864;SDS011;40618;51.166;10.322;2023-04-25T05:23:34;4.47;;;2.53;;
26864;SDS011;40618;51.166;10.322;2023-04-25T05:26:00;6.88;;;3.05;;
26864;SDS011;40618;51.166;10.322;2023-04-25T05:28:26;6.95;;;2.88;;
26864;SDS011;40618;51.166;10.322;2023-04-25T05:30:51;6.45;;;3.00;;
26864;SDS011;40618;51.166;10.322;2023-04-25T05:33:17;4.70;;;2.58;;
26864;SDS011;40618;51.166;10.322;2023-04-25T05:35:43;6.75;;;2.55;;
26864;SDS011;40618;51.166;10.322;2023-04-25T05:38:09;3.72;;;2.90;;
26864;SDS011;40618;51.166;10.322;2023-04-25T05:40:36;5.05;;;2.50;;
26864;SDS011;40618;51.166;10.322;2023-04-25T05:43:01;4.75;;;3.22;;
26864;SDS011;40618;51.166;10.322;2023-04-25T05:45:27;5.97;;;2.75;;
26864;SDS011;40618;51.166;10.322;2023-04-25T05:47:53;4.47;;;2.88;;
26864;SDS011;40618;51.166;10.322;2023-04-25T05:50:19;7.40;;;3.20;;
26864;SDS011;40618;51.166;10.322;2023-04-25T05:52:44;5.53;;;2.72;;
26864;SDS011;40618;51.166;10.322;2023-04-25T05:55:10;5.05;;;2.85;;
26864;SDS011;40618;51.166;10.322;2023-04-25T05:57:35;5.88;;;3.00;;
26864;SDS011;40618;51.166;10.322;2023-04-25T06:00:01;6.28;;;2.53;;
26864;SDS011;40618;51.166;10.322;2023-04-25T06:02:28;6.15;;;2.75;;
26864;SDS011;40618;51.166;10.322;2023-04-25T06:04:53;8.07;;;3.40;;
26864;SDS011;40618;51.166;10.322;2023-04-25T06:07:19;6.28;;;2.97;;
26864;SDS011;40618;51.166;10.322;2023-04-25T06:09:45;4.22;;;2.88;;
26864;SDS011;40618;51.166;10.322;2023-04-25T06:12:11;4.65;;;2.63;;
26864;SDS011;40618;51.166;10.322;2023-04-25T06:14:36;5.72;;;3.05;;
26864;SDS011;40618;51.166;10.322;2023-04-25T06:17:02;7.05;;;2.85;;
26864;SDS011;40618;51.166;10.322;2023-04-25T06:19:33;7.60;;;2.92;;
26864;SDS011;40618;51.166;10.322;2023-04-25T06:22:02;8.95;;;3.28;;
26864;SDS011;40618;51.166;10.322;2023-04-25T06:24:27;8.23;;;3.50;;
26864;SDS011;40618;51.166;10.322;2023-04-25T06:26:53;7.47;;;3.20;;
26864;SDS011;40618;51.166;10.322;2023-04-25T06:29:20;5.15;;;3.13;;
26864;SDS011;40618;51.166;10.322;2023-04-25T06:31:46;8.05;;;3.53;;
26864;SDS011;40618;51.166;10.322;2023-04-25T06:34:12;6.15;;;3.25;;
26864;SDS011;40618;51.166;10.322;2023-04-25T06:36:37;6.13;;;3.33;;
26864;SDS011;40618;51.166;10.322;2023-04-25T06:39:03;7.53;;;3.50;;
26864;SDS011;40618;51.166;10.322;2023-04-25T06:41:28;6.53;;;3.00;;
26864;SDS011;40618;51.166;10.322;2023-04-25T06:43:54;5.03;;;3.13;;
26864;SDS011;40618;51.166;10.322;2023-04-25T06:46:19;6.78;;;4.20;;
26864;SDS011;40618;51.166;10.322;2023-04-25T06:48:45;4.72;;;3.28;;
26864;SDS011;40618;51.166;10.322;2023-04-25T06:51:11;8.73;;;4.53;;
26864;SDS011;40618;51.166;10.322;2023-04-25T06:53:38;6.80;;;3.42;;
26864;SDS011;40618;51.166;10.322;2023-04-25T06:56:05;6.78;;;3.75;;
26864;SDS011;40618;51.166;10.322;2023-04-25T06:58:31;8.43;;;4.03;;
26864;SDS011;40618;51.166;10.322;2023-04-25T07:00:56;7.53;;;4.35;;
26864;SDS011;40618;51.166;10.322;2023-04-25T07:03:22;8.77;;;3.88;;
26864;SDS011;40618;51.166;10.322;2023-04-25T07:05:48;9.05;;;4.50;;
26864;SDS011;40618;51.166;10.322;2023-04-25T07:08:15;12.02;;;5.15;;
26864;SDS011;40618;51.166;10.322;2023-04-25T07:10:40;10.55;;;5.13;;
26864;SDS011;40618;51.166;10.322;2023-04-25T07:13:06;10.32;;;5.07;;
26864;SDS011;40618;51.166;10.322;2023-04-25T07:15:32;6.65;;;4.35;;
26864;SDS011;40618;51.166;10.322;2023-04-25T07:17:57;4.80;;;2.85;;
26864;SDS011;40618;51.166;10.322;2023-04-25T07:20:23;6.70;;;4.15;;
26864;SDS011;40618;51.166;10.322;2023-04-25T07:22:49;4.03;;;2.90;;
26864;SDS011;40618;51.166;10.322;2023-04-25T07:25:15;8.05;;;3.13;;
26864;SDS011;40618;51.166;10.322;2023-04-25T07:27:41;8.55;;;2.80;;
26864;SDS011;40618;51.166;10.322;2023-04-25T07:30:07;4.85;;;2.92;;
26864;SDS011;40618;51.166;10.322;2023-04-25T07:32:34;2.72;;;2.13;;
26864;SDS011;40618;51.166;10.322;2023-04-25T07:35:00;2.70;;;1.83;;
26864;SDS011;40618;51.166;10.322;2023-04-25T07:37:27;4.93;;;1.70;;
26864;SDS011;40618;51.166;10.322;2023-04-25T07:39:52;2.80;;;1.40;;
26864;SDS011;40618;51.166;10.322;2023-04-25T07:42:18;2.10;;;1.50;;
26864;SDS011;40618;51.166;10.322;2023-04-25T07:44:43;2.40;;;1.23;;
26864;SDS011;40618;51.166;10.322;2023-04-25T07:47:09;1.42;;;1.20;;
26864;SDS011;40618;51.166;10.322;2023-04-25T07:49:35;3.78;;;1.23;;
26864;SDS011;40618;51.166;10.322;2023-04-25T07:52:03;2.47;;;1.48;;
26864;SDS011;40618;51.166;10.322;2023-04-25T07:54:31;1.25;;;0.90;;
26864;SDS011;40618;51.166;10.322;2023-04-25T07:56:57;2.47;;;1.27;;
26864;SDS011;40618;51.166;10.322;2023-04-25T07:59:23;3.22;;;1.40;;
26864;SDS011;40618;51.166;10.322;2023-04-25T08:01:49;2.88;;;1.60;;
26864;SDS011;40618;51.166;10.322;2023-04-25T08:04:15;3.13;;;1.20;;
26864;SDS011;40618;51.166;10.322;2023-04-25T08:06:41;2.67;;;1.35;;
26864;SDS011;40618;51.166;10.322;2023-04-25T08:09:07;3.22;;;1.40;;
26864;SDS011;40618;51.166;10.322;2023-04-25T08:11:36;2.22;;;1.17;;
26864;SDS011;40618;51.166;10.322;2023-04-25T08:14:02;4.00;;;1.60;;
26864;SDS011;40618;51.166;10.322;2023-04-25T08:16:28;6.68;;;1.58;;
26864;SDS011;40618;51.166;10.322;2023-04-25T08:18:53;8.20;;;2.13;;
26864;SDS011;40618;51.166;10.322;2023-04-25T08:21:19;3.85;;;1.73;;
26864;SDS011;40618;51.166;10.322;2023-04-25T08:23:45;4.47;;;1.88;;
26864;SDS011;40618;51.166;10.322;2023-04-25T08:26:11;6.13;;;1.67;;
26864;SDS011;40618;51.166;10.322;2023-04-25T08:28:36;4.45;;;1.90;;
26864;SDS011;40618;51.166;10.322;2023-04-25T08:31:02;4.88;;;2.00;;
26864;SDS011;40618;51.166;10.322;2023-04-25T08:33:28;7.45;;;2.25;;
26864;SDS011;40618;51.166;10.322;2023-04-25T08:35:54;7.68;;;2.70;;
26864;SDS011;40618;51.166;10.322;2023-04-25T08:38:20;8.30;;;3.97;;
26864;SDS011;40618;51.166;10.322;2023-04-25T08:40:48;6.13;;;2.55;;
26864;SDS011;40618;51.166;10.322;2023-04-25T08:43:19;8.60;;;3.75;;
26864;SDS011;40618;51.166;10.322;2023-04-25T08:45:45;4.28;;;2.42;;
26864;SDS011;40618;51.166;10.322;2023-04-25T08:48:12;9.30;;;2.03;;
26864;SDS011;40618;51.166;10.322;2023-04-25T08:50:45;11.98;;;3.72;;
26864;SDS011;40618;51.166;10.322;2023-04-25T08:53:16;8.68;;;3.05;;
26864;SDS011;40618;51.166;10.322;2023-04-25T08:55:56;6.05;;;2.90;;
26864;SDS011;40618;51.166;10.322;2023-04-25T08:58:24;9.20;;;3.45;;
26864;SDS011;40618;51.166;10.322;2023-04-25T09:00:50;14.20;;;4.93;;
26864;SDS011;40618;51.166;10.322;2023-04-25T09:03:17;8.73;;;2.80;;
26864;SDS011;40618;51.166;10.322;2023-04-25T09:05:43;8.05;;;2.25;;
26864;SDS011;40618;51.166;10.322;2023-04-25T09:08:10;5.45;;;1.65;;
26864;SDS011;40618;51.166;10.322;2023-04-25T09:10:35;6.60;;;1.90;;
26864;SDS011;40618;51.166;10.322;2023-04-25T09:13:12;3.05;;;1.50;;
26864;SDS011;40618;51.166;10.322;2023-04-25T09:15:49;4.88;;;1.40;;
26864;SDS011;40618;51.166;10.322;2023-04-25T09:18:24;5.30;;;1.42;;
26864;SDS011;40618;51.166;10.322;2023-04-25T09:20:53;3.78;;;1.33;;
26864;SDS011;40618;51.166;10.322;2023-04-25T09:23:21;4.20;;;1.50;;
26864;SDS011;40618;51.166;10.322;2023-04-25T09:25:48;9.23;;;3.67;;
26864;SDS011;40618;51.166;10.322;2023-04-25T09:28:17;6.75;;;2.63;;
26864;SDS011;40618;51.166;10.322;2023-04-25T09:30:56;4.93;;;1.75;;
26864;SDS011;40618;51.166;10.322;2023-04-25T09:33:29;5.10;;;1.58;;
26864;SDS011;40618;51.166;10.322;2023-04-25T09:36:04;6.32;;;1.95;;
26864;SDS011;40618;51.166;10.322;2023-04-25T09:38:44;3.80;;;1.55;;
26864;SDS011;40618;51.166;10.322;2023-04-25T09:41:11;5.70;;;1.80;;
26864;SDS011;40618;51.166;10.322;2023-04-25T09:43:38;4.38;;;1.63;;
26864;SDS011;40618;51.166;10.322;2023-04-25T09:46:08;11.02;;;2.40;;
26864;SDS011;40618;51.166;10.322;2023-04-25T09:48:35;7.45;;;1.83;;
26864;SDS011;40618;51.166;10.322;2023-04-25T09:51:12;5.72;;;2.10;;
26864;SDS011;40618;51.166;10.322;2023-04-25T09:53:40;6.45;;;2.50;;
26864;SDS011;40618;51.166;10.322;2023-04-25T09:56:09;6.93;;;1.98;;
26864;SDS011;40618;51.166;10.322;2023-04-25T09:58:37;3.72;;;1.90;;
26864;SDS011;40618;51.166;10.322;2023-04-25T10:01:05;5.88;;;1.95;;
26864;SDS011;40618;51.166;10.322;2023-04-25T10:03:34;6.05;;;2.33;;
26864;SDS011;40618;51.166;10.322;2023-04-25T10:06:04;9.32;;;3.40;;
26864;SDS011;40618;51.166;10.322;2023-04-25T10:08:53;8.50;;;3.65;;
26864;SDS011;40618;51.166;10.322;2023-04-25T10:11:20;6.07;;;2.00;;
26864;SDS011;40618;51.166;10.322;2023-04-25T10:13:50;5.30;;;2.40;;
26864;SDS011;40618;51.166;10.322;2023-04-25T10:16:17;5.88;;;2.30;;
26864;SDS011;40618;51.166;10.322;2023-04-25T10:18:43;5.07;;;1.45;;
26864;SDS011;40618;51.166;10.322;2023-04-25T10:21:09;11.32;;;3.53;;
26864;SDS011;40618;51.166;10.322;2023-04-25T10:23:36;7.70;;;2.30;;
26864;SDS011;40618;51.166;10.322;2023-04-25T10:26:02;8.10;;;2.22;;
26864;SDS011;40618;51.166;10.322;2023-04-25T10:28:28;6.03;;;2.25;;
26864;SDS011;40618;51.166;10.322;2023-04-25T10:31:01;8.43;;;2.30;;
26864;SDS011;40618;51.166;10.322;2023-04-25T10:33:32;9.60;;;2.17;;
26864;SDS011;40618;51.166;10.322;2023-04-25T10:38:37;5.68;;;2.17;;
26864;SDS011;40618;51.166;10.322;2023-04-25T10:41:07;5.68;;;3.08;;
26864;SDS011;40618;51.166;10.322;2023-04-25T10:43:38;7.65;;;2.60;;
26864;SDS011;40618;51.166;10.322;2023-04-25T10:46:18;6.68;;;2.30;;
26864;SDS011;40618;51.166;10.322;2023-04-25T10:49:00;4.15;;;1.67;;
26864;SDS011;40618;51.166;10.322;2023-04-25T10:51:28;9.63;;;2.45;;
26864;SDS011;40618;51.166;10.322;2023-04-25T10:56:36;5.75;;;1.70;;
26864;SDS011;40618;51.166;10.322;2023-04-25T10:59:15;9.82;;;2.67;;
26864;SDS011;40618;51.166;10.322;2023-04-25T11:04:32;10.50;;;2.00;;
26864;SDS011;40618;51.166;10.322;2023-04-25T11:07:16;4.05;;;1.20;;
26864;SDS011;40618;51.166;10.322;2023-04-25T11:09:58;7.15;;;1.65;;
26864;SDS011;40618;51.166;10.322;2023-04-25T11:12:31;5.43;;;1.75;;
26864;SDS011;40618;51.166;10.322;2023-04-25T11:15:15;3.65;;;1.65;;
26864;SDS011;40618;51.166;10.322;2023-04-25T11:17:40;3.65;;;1.90;;
26864;SDS011;40618;51.166;10.322;2023-04-25T11:20:08;4.72;;;1.60;;
26864;SDS011;40618;51.166;10.322;2023-04-25T11:22:37;5.95;;;1.60;;
26864;SDS011;40618;51.166;10.322;2023-04-25T11:25:06;3.95;;;1.55;;
26864;SDS011;40618;51.166;10.322;2023-04-25T11:27:33;4.18;;;1.38;;
26864;SDS011;40618;51.166;10.322;2023-04-25T11:30:12;2.83;;;1.50;;
26864;SDS011;40618;51.166;10.322;2023-04-25T11:32:40;3.45;;;1.42;;
26864;SDS011;40618;51.166;10.322;2023-04-25T11:35:07;5.75;;;1.98;;
26864;SDS011;40618;51.166;10.322;2023-04-25T11:37:33;5.75;;;1.60;;
26864;SDS011;40618;51.166;10.322;2023-04-25T11:39:59;4.35;;;1.50;;
26864;SDS011;40618;51.166;10.322;2023-04-25T11:42:25;4.05;;;1.27;;
26864;SDS011;40618;51.166;10.322;2023-04-25T11:44:51;6.75;;;1.67;;
26864;SDS011;40618;51.166;10.322;2023-04-25T11:47:17;5.43;;;1.50;;
26864;SDS011;40618;51.166;10.322;2023-04-25T11:49:42;3.50;;;1.30;;
26864;SDS011;40618;51.166;10.322;2023-04-25T11:52:08;6.70;;;1.60;;
26864;SDS011;40618;51.166;10.322;2023-04-25T11:54:37;5.13;;;2.67;;
26864;SDS011;40618;51.166;10.322;2023-04-25T11:57:03;3.25;;;1.45;;
26864;SDS011;40618;51.166;10.322;2023-04-25T11:59:29;5.13;;;1.50;;
26864;SDS011;40618;51.166;10.322;2023-04-25T12:01:55;7.88;;;2.03;;
26864;SDS011;40618;51.166;10.322;2023-04-25T12:04:23;10.68;;;2.00;;
26864;SDS011;40618;51.166;10.322;2023-04-25T12:06:50;5.65;;;1.90;;
26864;SDS011;40618;51.166;10.322;2023-04-25T12:09:27;5.95;;;1.65;;
26864;SDS011;40618;51.166;10.322;2023-04-25T12:11:58;3.83;;;1.37;;
26864;SDS011;40618;51.166;10.322;2023-04-25T12:14:32;5.78;;;1.52;;
26864;SDS011;40618;51.166;10.322;2023-04-25T12:17:00;3.88;;;1.92;;
26864;SDS011;40618;51.166;10.322;2023-04-25T12:19:32;4.35;;;1.70;;
26864;SDS011;40618;51.166;10.322;2023-04-25T12:22:02;7.80;;;3.47;;
26864;SDS011;40618;51.166;10.322;2023-04-25T12:24:28;5.80;;;1.75;;
26864;SDS011;40618;51.166;10.322;2023-04-25T12:26:58;4.00;;;1.60;;
26864;SDS011;40618;51.166;10.322;2023-04-25T12:29:31;5.45;;;1.90;;
26864;SDS011;40618;51.166;10.322;2023-04-25T12:31:59;9.90;;;2.15;;
26864;SDS011;40618;51.166;10.322;2023-04-25T12:34:26;6.47;;;1.63;;
26864;SDS011;40618;51.166;10.322;2023-04-25T12:36:53;4.13;;;1.55;;
26864;SDS011;40618;51.166;10.322;2023-04-25T12:39:21;6.30;;;1.45;;
26864;SDS011;40618;51.166;10.322;2023-04-25T12:41:49;5.75;;;1.40;;
26864;SDS011;40618;51.166;10.322;2023-04-25T12:44:15;5.28;;;1.30;;
26864;SDS011;40618;51.166;10.322;2023-04-25T12:46:42;5.25;;;1.77;;
26864;SDS011;40618;51.166;10.322;2023-04-25T12:49:08;5.80;;;1.63;;
26864;SDS011;40618;51.166;10.322;2023-04-25T12:51:34;2.45;;;1.20;;
26864;SDS011;40618;51.166;10.322;2023-04-25T12:54:01;7.28;;;2.45;;
26864;SDS011;40618;51.166;10.322;2023-04-25T12:56:29;4.50;;;1.30;;
26864;SDS011;40618;51.166;10.322;2023-04-25T12:58:56;7.13;;;1.30;;
26864;SDS011;40618;51.166;10.322;2023-04-25T13:01:22;6.97;;;4.57;;
26864;SDS011;40618;51.166;10.322;2023-04-25T13:03:49;3.13;;;1.52;;
26864;SDS011;40618;51.166;10.322;2023-04-25T13:06:16;8.57;;;1.63;;
26864;SDS011;40618;51.166;10.322;2023-04-25T13:08:43;4.93;;;1.40;;
26864;SDS011;40618;51.166;10.322;2023-04-25T13:11:09;10.07;;;2.65;;
26864;SDS011;40618;51.166;10.322;2023-04-25T13:13:35;5.03;;;1.38;;
26864;SDS011;40618;51.166;10.322;2023-04-25T13:16:01;4.80;;;1.33;;
26864;SDS011;40618;51.166;10.322;2023-04-25T13:18:28;2.53;;;1.38;;
26864;SDS011;40618;51.166;10.322;2023-04-25T13:20:55;3.85;;;1.52;;
26864;SDS011;40618;51.166;10.322;2023-04-25T13:23:21;8.13;;;1.88;;
26864;SDS011;40618;51.166;10.322;2023-04-25T13:25:47;4.30;;;1.85;;
26864;SDS011;40618;51.166;10.322;2023-04-25T13:28:13;4.57;;;1.83;;
26864;SDS011;40618;51.166;10.322;2023-04-25T13:30:39;3.30;;;1.27;;
26864;SDS011;40618;51.166;10.322;2023-04-25T13:33:05;3.63;;;1.40;;
26864;SDS011;40618;51.166;10.322;2023-04-25T13:35:31;3.42;;;1.52;;
26864;SDS011;40618;51.166;10.322;2023-04-25T13:37:59;5.03;;;1.30;;
26864;SDS011;40618;51.166;10.322;2023-04-25T13:40:25;3.45;;;1.45;;
26864;SDS011;40618;51.166;10.322;2023-04-25T13:42:52;5.55;;;1.42;;
26864;SDS011;40618;51.166;10.322;2023-04-25T13:45:18;4.15;;;1.17;;
26864;SDS011;40618;51.166;10.322;2023-04-25T13:47:45;3.08;;;1.42;;
26864;SDS011;40618;51.166;10.322;2023-04-25T13:50:11;2.45;;;1.00;;
26864;SDS011;40618;51.166;10.322;2023-04-25T13:52:38;4.57;;;2.22;;
26864;SDS011;40618;51.166;10.322;2023-04-25T13:55:05;4.60;;;1.30;;
26864;SDS011;40618;51.166;10.322;2023-04-25T13:57:32;3.20;;;1.23;;
26864;SDS011;40618;51.166;10.322;2023-04-25T13:59:59;5.05;;;1.40;;
26864;SDS011;40618;51.166;10.322;2023-04-25T14:02:29;3.83;;;1.20;;
26864;SDS011;40618;51.166;10.322;2023-04-25T14:04:55;8.52;;;1.70;;
26864;SDS011;40618;51.166;10.322;2023-04-25T14:07:21;2.55;;;1.38;;
26864;SDS011;40618;51.166;10.322;2023-04-25T14:09:46;6.78;;;2.30;;
26864;SDS011;40618;51.166;10.322;2023-04-25T14:12:12;9.80;;;2.80;;
26864;SDS011;40618;51.166;10.322;2023-04-25T14:14:38;3.28;;;1.40;;
26864;SDS011;40618;51.166;10.322;2023-04-25T14:17:03;4.13;;;1.38;;
26864;SDS011;40618;51.166;10.322;2023-04-25T14:19:29;5.57;;;1.65;;
26864;SDS011;40618;51.166;10.322;2023-04-25T14:21:55;6.75;;;1.58;;
26864;SDS011;40618;51.166;10.322;2023-04-25T14:24:21;6.55;;;1.70;;
26864;SDS011;40618;51.166;10.322;2023-04-25T14:26:47;1.85;;;1.10;;
26864;SDS011;40618;51.166;10.322;2023-04-25T14:29:12;5.07;;;1.75;;
26864;SDS011;40618;51.166;10.322;2023-04-25T14:31:38;5.75;;;2.45;;
26864;SDS011;40618;51.166;10.322;2023-04-25T14:34:05;6.55;;;2.38;;
26864;SDS011;40618;51.166;10.322;2023-04-25T14:36:31;5.80;;;2.78;;
26864;SDS011;40618;51.166;10.322;2023-04-25T14:38:57;7.07;;;3.13;;
26864;SDS011;40618;51.166;10.322;2023-04-25T14:41:24;4.97;;;1.95;;